createdAt,value
2023-03-08T00:01:18.730Z,56.70
2023-03-08T00:03:45.793Z,56.91
2023-03-08T00:06:15.251Z,56.78
2023-03-08T00:08:42.135Z,57.03
2023-03-08T00:11:11.068Z,57.03
2023-03-08T00:13:37.605Z,56.81
2023-03-08T00:16:07.031Z,57.00
2023-03-08T00:18:34.739Z,57.01
2023-03-08T00:21:07.197Z,57.02
2023-03-08T00:23:33.931Z,56.95
2023-03-08T00:26:00.919Z,57.13
2023-03-08T00:28:27.908Z,57.25
2023-03-08T00:31:02.249Z,57.32
2023-03-08T00:33:30.432Z,56.99
2023-03-08T00:36:05.363Z,57.22
2023-03-08T00:38:33.540Z,57.37
2023-03-08T00:41:00.329Z,57.21
2023-03-08T00:43:27.058Z,57.45
2023-03-08T00:45:53.509Z,57.19
2023-03-08T00:48:20.761Z,57.44
2023-03-08T00:50:47.567Z,57.32
2023-03-08T00:53:14.243Z,57.55
2023-03-08T00:55:49.151Z,57.48
2023-03-08T00:58:15.673Z,57.57
2023-03-08T01:00:42.099Z,57.53
2023-03-08T01:03:08.976Z,57.55
2023-03-08T01:05:43.897Z,57.88
2023-03-08T01:08:13.195Z,57.66
2023-03-08T01:10:40.670Z,57.50
2023-03-08T01:13:09.477Z,57.26
2023-03-08T01:15:37.823Z,57.62
2023-03-08T01:18:05.962Z,57.41
2023-03-08T01:20:32.685Z,57.34
2023-03-08T01:22:59.160Z,57.27
2023-03-08T01:25:25.671Z,57.17
2023-03-08T01:27:52.436Z,57.12
2023-03-08T01:30:18.832Z,57.02
2023-03-08T01:32:45.611Z,57.16
2023-03-08T01:35:12.158Z,57.17
2023-03-08T01:37:38.911Z,57.18
2023-03-08T01:40:06.436Z,57.12
2023-03-08T01:42:33.421Z,57.48
2023-03-08T01:45:06.195Z,57.06
2023-03-08T01:47:36.459Z,57.16
2023-03-08T01:50:10.789Z,57.24
2023-03-08T01:52:48.681Z,56.89
2023-03-08T01:55:17.050Z,56.93
2023-03-08T01:57:52.122Z,57.06
2023-03-08T02:00:22.957Z,57.00
2023-03-08T02:02:59.544Z,57.05
2023-03-08T02:05:27.646Z,57.10
2023-03-08T02:07:54.008Z,56.83
2023-03-08T02:10:20.908Z,57.05
2023-03-08T02:12:48.708Z,57.01
2023-03-08T02:15:20.006Z,56.82
2023-03-08T02:17:46.859Z,56.79
2023-03-08T02:20:30.511Z,57.11
2023-03-08T02:23:27.726Z,56.85
2023-03-08T02:25:57.038Z,56.90
2023-03-08T02:28:25.188Z,56.44
2023-03-08T02:30:52.122Z,56.54
2023-03-08T02:33:18.821Z,56.55
2023-03-08T02:35:45.845Z,56.53
2023-03-08T02:38:14.839Z,56.72
2023-03-08T02:40:41.630Z,56.41
2023-03-08T02:43:08.457Z,56.83
2023-03-08T02:45:35.365Z,56.68
2023-03-08T02:48:04.039Z,56.74
2023-03-08T02:50:31.681Z,56.79
2023-03-08T02:52:58.616Z,56.68
2023-03-08T02:55:24.986Z,56.86
2023-03-08T02:57:52.120Z,56.92
2023-03-08T03:00:19.141Z,57.01
2023-03-08T03:02:45.933Z,56.69
2023-03-08T03:05:12.873Z,56.88
2023-03-08T03:07:41.567Z,57.32
2023-03-08T03:10:12.267Z,56.79
2023-03-08T03:12:39.202Z,56.85
2023-03-08T03:15:08.132Z,57.53
2023-03-08T03:17:36.745Z,57.53
2023-03-08T03:20:06.561Z,57.17
2023-03-08T03:22:33.266Z,57.41
2023-03-08T03:24:59.658Z,57.13
2023-03-08T03:27:26.117Z,57.71
2023-03-08T03:29:52.586Z,57.86
2023-03-08T03:32:19.660Z,57.77
2023-03-08T03:34:46.600Z,57.77
2023-03-08T03:37:12.981Z,57.62
2023-03-08T03:39:40.175Z,57.37
2023-03-08T03:42:08.005Z,57.74
2023-03-08T03:44:34.494Z,57.83
2023-03-08T03:47:00.968Z,58.03
2023-03-08T03:49:27.527Z,57.80
2023-03-08T03:51:54.014Z,57.97
2023-03-08T03:54:20.924Z,58.04
2023-03-08T03:56:47.438Z,58.17
2023-03-08T03:59:13.858Z,58.15
2023-03-08T04:01:40.235Z,57.86
2023-03-08T04:04:06.821Z,57.77
2023-03-08T04:06:34.327Z,57.77
2023-03-08T04:09:04.479Z,57.87
2023-03-08T04:11:37.386Z,57.99
2023-03-08T04:14:04.757Z,57.87
2023-03-08T04:16:33.499Z,58.11
2023-03-08T04:19:07.130Z,58.00
2023-03-08T04:21:33.734Z,57.84
2023-03-08T04:24:00.902Z,58.20
2023-03-08T04:26:27.793Z,58.13
2023-03-08T04:28:54.435Z,58.21
2023-03-08T04:31:29.641Z,58.15
2023-03-08T04:33:56.246Z,58.21
2023-03-08T04:36:23.090Z,58.21
2023-03-08T04:38:50.735Z,58.28
2023-03-08T04:41:17.950Z,58.47
2023-03-08T04:43:47.340Z,58.26
2023-03-08T04:46:15.283Z,58.64
2023-03-08T04:48:42.400Z,58.29
2023-03-08T04:51:11.936Z,58.73
2023-03-08T04:53:39.245Z,58.50
2023-03-08T04:56:06.740Z,58.46
2023-03-08T04:58:33.812Z,58.69
2023-03-08T05:01:00.296Z,58.46
2023-03-08T05:03:26.670Z,59.01
2023-03-08T05:05:55.497Z,58.35
2023-03-08T05:08:23.573Z,58.63
2023-03-08T05:11:00.520Z,58.88
2023-03-08T05:13:29.767Z,58.71
2023-03-08T05:15:56.708Z,58.55
2023-03-08T05:18:23.161Z,58.84
2023-03-08T05:20:57.526Z,58.85
2023-03-08T05:23:27.091Z,58.74
2023-03-08T05:25:56.140Z,58.48
2023-03-08T05:28:27.771Z,58.53
2023-03-08T05:31:20.978Z,58.61
2023-03-08T05:33:50.892Z,58.57
2023-03-08T05:36:18.703Z,58.57
2023-03-08T05:38:45.208Z,58.59
2023-03-08T05:41:14.947Z,58.68
2023-03-08T05:43:41.767Z,58.74
2023-03-08T05:46:11.841Z,58.75
2023-03-08T05:48:38.835Z,58.64
2023-03-08T05:51:16.939Z,58.97
2023-03-08T05:53:43.962Z,58.57
2023-03-08T05:56:15.934Z,58.41
2023-03-08T05:58:43.990Z,58.26
2023-03-08T06:01:17.018Z,58.80
2023-03-08T06:03:44.867Z,58.35
2023-03-08T06:06:13.276Z,58.50
2023-03-08T06:08:40.228Z,58.90
2023-03-08T06:11:06.917Z,58.92
2023-03-08T06:13:33.891Z,58.30
2023-03-08T06:16:01.036Z,58.45
2023-03-08T06:18:28.443Z,58.42
2023-03-08T06:21:16.103Z,58.50
2023-03-08T06:23:43.406Z,58.66
2023-03-08T06:26:11.499Z,58.52
2023-03-08T06:28:40.315Z,58.73
2023-03-08T06:31:08.192Z,58.84
2023-03-08T06:33:35.169Z,59.13
2023-03-08T06:36:08.941Z,58.75
2023-03-08T06:38:37.702Z,58.99
2023-03-08T06:41:05.471Z,59.19
2023-03-08T06:43:32.469Z,59.24
2023-03-08T06:45:58.919Z,59.46
2023-03-08T06:48:25.362Z,59.36
2023-03-08T06:50:51.872Z,59.62
2023-03-08T06:53:18.293Z,59.75
2023-03-08T06:55:44.745Z,59.19
2023-03-08T06:58:11.115Z,59.10
2023-03-08T07:00:38.464Z,59.22
2023-03-08T07:03:05.265Z,59.34
2023-03-08T07:05:31.758Z,59.13
2023-03-08T07:07:58.595Z,59.60
2023-03-08T07:10:25.292Z,59.42
2023-03-08T07:12:51.743Z,59.83
2023-03-08T07:15:22.316Z,60.13
2023-03-08T07:17:51.048Z,60.24
2023-03-08T07:20:20.340Z,60.56
2023-03-08T07:22:47.172Z,60.75
2023-03-08T07:25:16.072Z,60.74
2023-03-08T07:27:43.095Z,60.90
2023-03-08T07:30:11.099Z,61.22
2023-03-08T07:32:40.444Z,61.30
2023-03-08T07:35:08.095Z,61.04
2023-03-08T07:37:34.597Z,61.51
2023-03-08T07:40:00.971Z,61.33
2023-03-08T07:42:27.516Z,61.20
2023-03-08T07:44:54.214Z,61.37
2023-03-08T07:47:21.337Z,61.46
2023-03-08T07:49:47.896Z,61.17
2023-03-08T07:52:14.572Z,61.44
2023-03-08T07:54:41.067Z,61.55
2023-03-08T07:57:07.787Z,61.46
2023-03-08T07:59:34.173Z,61.45
2023-03-08T08:02:00.566Z,61.68
2023-03-08T08:04:26.959Z,61.52
2023-03-08T08:06:53.368Z,61.31
2023-03-08T08:09:19.797Z,61.48
2023-03-08T08:11:46.500Z,61.74
2023-03-08T08:14:12.893Z,61.92
2023-03-08T08:16:39.392Z,61.75
2023-03-08T08:19:06.218Z,61.70
2023-03-08T08:21:32.853Z,62.26
2023-03-08T08:23:59.455Z,62.14
2023-03-08T08:26:26.085Z,62.47
2023-03-08T08:28:54.565Z,62.32
2023-03-08T08:31:29.078Z,62.21
2023-03-08T08:33:55.509Z,62.26
2023-03-08T08:36:21.979Z,62.36
2023-03-08T08:38:48.897Z,61.96
2023-03-08T08:41:18.277Z,62.48
2023-03-08T08:43:46.424Z,61.50
2023-03-08T08:46:13.500Z,61.79
2023-03-08T08:48:40.317Z,62.01
2023-03-08T08:51:09.028Z,62.38
2023-03-08T08:53:36.929Z,61.81
2023-03-08T08:56:26.729Z,62.89
2023-03-08T08:58:59.445Z,62.87
2023-03-08T09:01:29.159Z,63.07
2023-03-08T09:03:56.064Z,63.72
2023-03-08T09:06:24.130Z,64.30
2023-03-08T09:08:56.083Z,65.57
2023-03-08T09:11:23.648Z,64.98
2023-03-08T09:13:50.516Z,65.40
2023-03-08T09:16:33.630Z,66.50
2023-03-08T09:19:01.700Z,66.27
2023-03-08T09:21:30.479Z,66.35
2023-03-08T09:24:00.797Z,66.77
2023-03-08T09:26:32.737Z,67.92
2023-03-08T09:29:04.704Z,68.84
2023-03-08T09:31:32.821Z,69.97
2023-03-08T09:34:00.128Z,72.13
2023-03-08T09:36:28.729Z,73.11
2023-03-08T09:38:56.336Z,75.36
2023-03-08T09:41:46.933Z,76.18
2023-03-08T09:44:43.657Z,78.72
2023-03-08T09:47:58.533Z,80.19
2023-03-08T09:50:34.061Z,81.71
2023-03-08T09:53:16.568Z,82.61
2023-03-08T09:55:53.041Z,87.52
2023-03-08T09:58:31.819Z,86.16
2023-03-08T10:01:12.022Z,86.33
2023-03-08T10:04:03.208Z,86.97
2023-03-08T10:06:50.121Z,90.73
2023-03-08T10:09:31.863Z,90.14
2023-03-08T10:12:22.726Z,89.33
2023-03-08T10:14:51.946Z,89.53
2023-03-08T10:17:22.506Z,91.97
2023-03-08T10:20:06.968Z,92.76
2023-03-08T10:22:39.005Z,91.93
2023-03-08T10:25:20.527Z,94.39
2023-03-08T10:27:51.749Z,94.58
2023-03-08T10:30:20.883Z,95.77
2023-03-08T10:32:50.969Z,98.92
2023-03-08T10:35:29.700Z,99.09
2023-03-08T10:37:56.118Z,98.10
2023-03-08T10:40:22.808Z,98.29
2023-03-08T10:43:14.504Z,98.87
2023-03-08T10:45:40.857Z,99.73
2023-03-08T10:48:07.658Z,100.00
2023-03-08T10:50:37.683Z,100.00
2023-03-08T10:53:17.121Z,100.00
2023-03-08T10:55:48.832Z,100.00
2023-03-08T10:58:34.815Z,100.00
2023-03-08T11:01:26.396Z,100.00
2023-03-08T11:04:06.058Z,100.00
2023-03-08T11:06:35.327Z,100.00
2023-03-08T11:09:04.393Z,100.00
2023-03-08T11:11:41.517Z,100.00
2023-03-08T11:14:11.058Z,100.00
2023-03-08T11:16:52.877Z,100.00
2023-03-08T11:19:33.119Z,100.00
2023-03-08T11:22:18.493Z,100.00
2023-03-08T11:25:11.091Z,100.00
2023-03-08T11:28:22.888Z,100.00
2023-03-08T11:31:03.733Z,100.00
2023-03-08T11:33:48.773Z,100.00
2023-03-08T11:36:35.341Z,100.00
2023-03-08T11:39:30.717Z,100.00
2023-03-08T11:42:05.829Z,100.00
2023-03-08T11:44:44.158Z,100.00
2023-03-08T11:47:34.036Z,100.00
2023-03-08T11:50:10.237Z,100.00
2023-03-08T11:55:55.402Z,100.00
2023-03-08T11:58:28.433Z,100.00
2023-03-08T12:01:01.385Z,100.00
2023-03-08T12:03:43.237Z,100.00
2023-03-08T12:06:29.192Z,100.00
2023-03-08T12:09:05.014Z,100.00
2023-03-08T12:11:35.997Z,100.00
2023-03-08T12:14:18.147Z,100.00
2023-03-08T12:17:10.120Z,100.00
2023-03-08T12:19:39.763Z,100.00
2023-03-08T12:22:12.195Z,100.00
2023-03-08T12:24:51.294Z,100.00
2023-03-08T12:27:21.277Z,100.00
2023-03-08T12:30:18.906Z,100.00
2023-03-08T12:32:47.374Z,100.00
2023-03-08T12:35:23.266Z,100.00
2023-03-08T12:38:00.587Z,100.00
2023-03-08T12:40:50.067Z,100.00
2023-03-08T12:43:19.441Z,100.00
2023-03-08T12:46:09.895Z,100.00
2023-03-08T12:48:49.255Z,100.00
2023-03-08T12:51:20.296Z,100.00
2023-03-08T12:53:49.657Z,100.00
2023-03-08T12:56:35.624Z,100.00
2023-03-08T12:59:23.491Z,100.00
2023-03-08T13:01:55.679Z,100.00
2023-03-08T13:04:42.347Z,100.00
2023-03-08T13:07:18.533Z,100.00
2023-03-08T13:09:54.666Z,100.00
2023-03-08T13:12:32.792Z,100.00
2023-03-08T13:15:11.501Z,100.00
2023-03-08T13:17:41.641Z,100.00
2023-03-08T13:20:17.269Z,100.00
2023-03-08T13:23:12.974Z,100.00
2023-03-08T13:25:39.673Z,100.00
2023-03-08T13:28:13.081Z,100.00
2023-03-08T13:30:49.720Z,100.00
2023-03-08T13:33:40.240Z,100.00
2023-03-08T13:36:14.784Z,100.00
2023-03-08T13:38:41.522Z,100.00
2023-03-08T13:41:08.149Z,100.00
2023-03-08T13:43:35.789Z,100.00
2023-03-08T13:46:05.418Z,100.00
2023-03-08T13:48:34.936Z,100.00
2023-03-08T13:51:02.826Z,100.00
2023-03-08T13:53:35.462Z,100.00
2023-03-08T13:56:05.442Z,100.00
2023-03-08T13:58:38.349Z,100.00
2023-03-08T14:01:14.839Z,100.00
2023-03-08T14:03:43.678Z,100.00
2023-03-08T14:06:26.430Z,100.00
2023-03-08T14:08:58.856Z,100.00
2023-03-08T14:11:33.558Z,100.00
2023-03-08T14:14:02.891Z,100.00
2023-03-08T14:16:35.104Z,100.00
2023-03-08T14:19:27.589Z,100.00
2023-03-08T14:21:57.734Z,100.00
2023-03-08T14:24:26.636Z,100.00
2023-03-08T14:27:06.028Z,100.00
2023-03-08T14:29:34.624Z,100.00
2023-03-08T14:32:04.675Z,100.00
2023-03-08T14:34:41.673Z,100.00
2023-03-08T14:37:11.122Z,100.00
2023-03-08T14:39:42.164Z,100.00
2023-03-08T14:42:16.225Z,100.00
2023-03-08T14:44:42.718Z,100.00
2023-03-08T14:47:19.320Z,100.00
2023-03-08T14:49:55.221Z,100.00
2023-03-08T14:52:21.692Z,100.00
2023-03-08T14:54:48.240Z,100.00
2023-03-08T14:57:33.288Z,100.00
2023-03-08T15:00:14.026Z,100.00
2023-03-08T15:02:40.809Z,100.00
2023-03-08T15:05:14.143Z,100.00
2023-03-08T15:07:41.799Z,100.00
2023-03-08T15:10:14.169Z,100.00
2023-03-08T15:12:41.246Z,100.00
2023-03-08T15:15:14.737Z,100.00
2023-03-08T15:17:41.375Z,100.00
2023-03-08T15:20:10.179Z,100.00
2023-03-08T15:22:43.130Z,100.00
2023-03-08T15:25:19.146Z,100.00
2023-03-08T15:27:46.548Z,100.00
2023-03-08T15:30:21.207Z,100.00
2023-03-08T15:32:48.002Z,100.00
2023-03-08T15:35:14.893Z,100.00
2023-03-08T15:37:42.568Z,100.00
2023-03-08T15:40:29.072Z,100.00
2023-03-08T15:42:55.770Z,100.00
2023-03-08T15:45:22.203Z,100.00
2023-03-08T15:48:02.618Z,100.00
2023-03-08T15:50:30.821Z,100.00
2023-03-08T15:52:58.065Z,100.00
2023-03-08T15:55:26.485Z,100.00
2023-03-08T15:57:53.075Z,100.00
2023-03-08T16:00:22.048Z,100.00
2023-03-08T16:02:49.468Z,100.00
2023-03-08T16:05:16.459Z,100.00
2023-03-08T16:07:43.138Z,100.00
2023-03-08T16:10:13.199Z,100.00
2023-03-08T16:12:41.068Z,100.00
2023-03-08T16:15:08.062Z,100.00
2023-03-08T16:17:34.889Z,100.00
2023-03-08T16:20:01.304Z,100.00
2023-03-08T16:22:28.995Z,100.00
2023-03-08T16:24:55.532Z,100.00
2023-03-08T16:27:22.222Z,100.00
2023-03-08T16:29:52.714Z,100.00
2023-03-08T16:32:20.190Z,100.00
2023-03-08T16:34:52.606Z,100.00
2023-03-08T16:37:20.392Z,100.00
2023-03-08T16:39:49.126Z,100.00
2023-03-08T16:42:16.475Z,100.00
2023-03-08T16:44:50.514Z,100.00
2023-03-08T16:47:17.116Z,100.00
2023-03-08T16:49:43.607Z,100.00
2023-03-08T16:52:10.423Z,100.00
2023-03-08T16:54:36.822Z,100.00
2023-03-08T16:57:18.111Z,100.00
2023-03-08T16:59:45.418Z,100.00
2023-03-08T17:02:16.847Z,100.00
2023-03-08T17:04:43.592Z,100.00
2023-03-08T17:07:11.239Z,100.00
2023-03-08T17:09:38.455Z,100.00
2023-03-08T17:12:05.251Z,100.00
2023-03-08T17:14:34.633Z,100.00
2023-03-08T17:17:01.637Z,100.00
2023-03-08T17:19:28.063Z,100.00
2023-03-08T17:21:54.799Z,100.00
2023-03-08T17:24:22.333Z,100.00
2023-03-08T17:26:51.136Z,100.00
2023-03-08T17:29:17.703Z,100.00
2023-03-08T17:31:44.437Z,100.00
2023-03-08T17:34:11.058Z,100.00
2023-03-08T17:36:38.091Z,100.00
2023-03-08T17:39:04.600Z,100.00
2023-03-08T17:41:32.434Z,100.00
2023-03-08T17:43:59.076Z,100.00
2023-03-08T17:46:27.342Z,100.00
2023-03-08T17:48:55.564Z,100.00
2023-03-08T17:51:25.355Z,100.00
2023-03-08T17:53:52.617Z,100.00
2023-03-08T17:56:21.662Z,100.00
2023-03-08T17:58:49.719Z,100.00
2023-03-08T18:01:19.106Z,100.00
2023-03-08T18:03:46.482Z,100.00
2023-03-08T18:06:20.903Z,100.00
2023-03-08T18:08:47.318Z,100.00
2023-03-08T18:11:13.710Z,100.00
2023-03-08T18:13:40.928Z,100.00
2023-03-08T18:16:07.909Z,100.00
2023-03-08T18:18:34.340Z,100.00
2023-03-08T18:21:12.713Z,100.00
2023-03-08T18:23:42.877Z,100.00
2023-03-08T18:26:10.588Z,100.00
2023-03-08T18:28:37.081Z,100.00
2023-03-08T18:31:15.796Z,100.00
2023-03-08T18:33:42.631Z,100.00
2023-03-08T18:36:09.186Z,100.00
2023-03-08T18:38:35.898Z,100.00
2023-03-08T18:41:14.107Z,100.00
2023-03-08T18:43:41.264Z,100.00
2023-03-08T18:46:10.307Z,100.00
2023-03-08T18:48:36.886Z,100.00
2023-03-08T18:51:04.085Z,100.00
2023-03-08T18:53:30.453Z,100.00
2023-03-08T18:55:59.441Z,100.00
2023-03-08T18:58:26.472Z,100.00
2023-03-08T19:00:56.946Z,100.00
2023-03-08T19:03:23.487Z,100.00
2023-03-08T19:05:49.954Z,100.00
2023-03-08T19:08:16.368Z,100.00
2023-03-08T19:10:42.753Z,100.00
2023-03-08T19:13:09.136Z,100.00
2023-03-08T19:15:37.991Z,100.00
2023-03-08T19:18:05.818Z,100.00
2023-03-08T19:20:39.326Z,100.00
2023-03-08T19:23:05.853Z,100.00
2023-03-08T19:25:34.074Z,100.00
2023-03-08T19:28:00.593Z,100.00
2023-03-08T19:30:28.373Z,100.00
2023-03-08T19:32:55.996Z,100.00
2023-03-08T19:35:22.563Z,100.00
2023-03-08T19:37:48.957Z,100.00
2023-03-08T19:40:15.582Z,100.00
2023-03-08T19:42:41.974Z,100.00
2023-03-08T19:45:08.976Z,100.00
2023-03-08T19:47:35.341Z,100.00
2023-03-08T19:50:01.717Z,100.00
2023-03-08T19:52:28.088Z,100.00
2023-03-08T19:54:54.532Z,100.00
2023-03-08T19:57:20.947Z,100.00
2023-03-08T19:59:47.353Z,100.00
2023-03-08T20:02:13.752Z,100.00
2023-03-08T20:04:40.862Z,100.00
2023-03-08T20:07:07.572Z,100.00
2023-03-08T20:09:33.941Z,100.00
2023-03-08T20:12:00.361Z,100.00
2023-03-08T20:14:27.661Z,100.00
2023-03-08T20:16:55.102Z,100.00
2023-03-08T20:19:21.706Z,100.00
2023-03-08T20:21:49.045Z,100.00
2023-03-08T20:24:18.122Z,100.00
2023-03-08T20:26:45.594Z,100.00
2023-03-08T20:29:12.080Z,100.00
2023-03-08T20:31:38.669Z,100.00
2023-03-08T20:34:05.077Z,100.00
2023-03-08T20:36:31.660Z,100.00
2023-03-08T20:38:58.736Z,100.00
2023-03-08T20:41:25.794Z,100.00
2023-03-08T20:43:55.383Z,100.00
2023-03-08T20:46:25.890Z,100.00
2023-03-08T20:48:52.470Z,100.00
2023-03-08T20:51:21.868Z,100.00
2023-03-08T20:53:50.584Z,100.00
2023-03-08T20:56:18.903Z,100.00
2023-03-08T20:58:46.329Z,100.00
2023-03-08T21:01:15.465Z,100.00
2023-03-08T21:03:42.211Z,100.00
2023-03-08T21:06:13.618Z,100.00
2023-03-08T21:08:40.246Z,100.00
2023-03-08T21:11:06.772Z,100.00
2023-03-08T21:13:33.317Z,100.00
2023-03-08T21:16:01.346Z,100.00
2023-03-08T21:18:27.741Z,100.00
2023-03-08T21:20:54.140Z,100.00
2023-03-08T21:23:23.011Z,100.00
2023-03-08T21:25:53.094Z,100.00
2023-03-08T21:28:21.496Z,100.00
2023-03-08T21:30:48.344Z,100.00
2023-03-08T21:33:14.911Z,100.00
2023-03-08T21:35:42.430Z,100.00
2023-03-08T21:38:09.286Z,100.00
2023-03-08T21:40:41.080Z,100.00
2023-03-08T21:43:08.017Z,100.00
2023-03-08T21:45:42.174Z,100.00
2023-03-08T21:48:09.240Z,100.00
2023-03-08T21:50:39.815Z,100.00
2023-03-08T21:53:07.534Z,100.00
2023-03-08T21:55:34.156Z,100.00
2023-03-08T21:58:00.858Z,100.00
2023-03-08T22:00:27.426Z,100.00
2023-03-08T22:02:54.852Z,100.00
2023-03-08T22:05:21.408Z,100.00
2023-03-08T22:07:47.866Z,100.00
2023-03-08T22:10:15.169Z,100.00
2023-03-08T22:12:44.795Z,100.00
2023-03-08T22:15:12.269Z,100.00
2023-03-08T22:17:39.091Z,100.00
2023-03-08T22:20:06.309Z,100.00
2023-03-08T22:22:32.728Z,100.00
2023-03-08T22:25:00.055Z,100.00
2023-03-08T22:27:28.220Z,100.00
2023-03-08T22:29:55.066Z,100.00
2023-03-08T22:32:21.838Z,100.00
2023-03-08T22:34:48.344Z,100.00
2023-03-08T22:37:15.216Z,100.00
2023-03-08T22:39:42.045Z,100.00
2023-03-08T22:42:08.542Z,100.00
2023-03-08T22:44:34.991Z,100.00
2023-03-08T22:47:01.761Z,100.00
2023-03-08T22:49:28.188Z,100.00
2023-03-08T22:51:54.578Z,100.00
2023-03-08T22:54:23.169Z,100.00
2023-03-08T22:56:50.174Z,100.00
2023-03-08T22:59:17.204Z,100.00
2023-03-08T23:01:43.768Z,100.00
2023-03-08T23:04:11.941Z,100.00
2023-03-08T23:06:39.008Z,100.00
2023-03-08T23:09:07.936Z,100.00
2023-03-08T23:11:35.683Z,100.00
2023-03-08T23:14:03.218Z,100.00
2023-03-08T23:16:29.781Z,100.00
2023-03-08T23:18:56.600Z,100.00
2023-03-08T23:21:25.162Z,100.00
2023-03-08T23:23:51.600Z,100.00
2023-03-08T23:26:23.746Z,100.00
2023-03-08T23:28:51.090Z,100.00
2023-03-08T23:31:19.776Z,100.00
2023-03-08T23:33:46.536Z,100.00
2023-03-08T23:36:15.295Z,100.00
2023-03-08T23:38:42.442Z,100.00
2023-03-08T23:41:10.501Z,100.00
2023-03-08T23:43:37.822Z,100.00
2023-03-08T23:46:10.504Z,100.00
2023-03-08T23:48:37.219Z,100.00
2023-03-08T23:51:05.342Z,100.00
2023-03-08T23:53:31.751Z,100.00
2023-03-08T23:55:58.242Z,100.00
2023-03-08T23:58:24.710Z,100.00
